Terminal Aerodrome Forecast
Issued by NWS Bismarck, ND

Home | Current Version | Previous Version | Graphics & Text | Print | Product List | Glossary On
Versions: 1 2 3 4 5 6 7 8 9 10 11 12 13 14 15 16 17 18
575
FTUS43 KBIS 222320
TAFBIS
TAF
KBIS 222320Z 2300/2324 22010KT P6SM VCTS SCT045CB BKN120
     FM230200 29006KT 5SM TSRA BKN040CB OVC090CB
     FM230400 30004KT P6SM VCTS BKN050CB
     FM230700 22004KT P6SM BKN050 BKN200
     FM231400 25005KT P6SM FEW250=

USA.gov is the U.S. government's official web portal to all federal, state and local government web resources and services.